Time;durP1;ratioP1;P1;durP2;ratioP2;P2;SDS_P1;SDS_P2;PMS_P1;PMS_P2;Temp;Humidity;BMP_temperature;BMP_pressure;BME280_temperature;BME280_humidity;BME280_pressure;Samples;Min_cycle;Max_cycle;Signal;HPM_P1;HPM_P2
2022/01/02 00:01:45;;;;;;;20.05;12.95;;;;;;;;;;5103624;28;20188;-70
2022/01/02 00:04:14;;;;;;;22.25;13.63;;;;;;;;;;5103601;28;20198;-70
2022/01/02 00:06:45;;;;;;;18.48;12.07;;;;;;;;;;5103212;28;20200;-70
2022/01/02 00:09:12;;;;;;;18.33;12.85;;;;;;;;;;5103337;28;20195;-70
2022/01/02 00:11:40;;;;;;;19.33;13.18;;;;;;;;;;5103437;28;20218;-70
2022/01/02 00:14:09;;;;;;;20.15;12.90;;;;;;;;;;5103082;28;20196;-70
2022/01/02 00:16:36;;;;;;;18.20;12.63;;;;;;;;;;5104036;28;20204;-70
2022/01/02 00:19:07;;;;;;;19.75;12.60;;;;;;;;;;5123051;28;20195;-70
2022/01/02 00:21:39;;;;;;;16.75;11.82;;;;;;;;;;5123720;28;20214;-69
2022/01/02 00:24:12;;;;;;;16.63;12.07;;;;;;;;;;5123378;28;20189;-69
2022/01/02 00:26:42;;;;;;;16.08;11.80;;;;;;;;;;5123071;28;20394;-69
2022/01/02 00:29:10;;;;;;;17.08;12.18;;;;;;;;;;5123562;28;20183;-68
2022/01/02 00:31:37;;;;;;;20.23;11.48;;;;;;;;;;5123388;28;20395;-68
2022/01/02 00:34:05;;;;;;;16.30;11.68;;;;;;;;;;5122041;28;20191;-68
2022/01/02 00:36:31;;;;;;;14.90;11.48;;;;;;;;;;5122949;28;20195;-68
2022/01/02 00:38:57;;;;;;;15.57;11.00;;;;;;;;;;5123305;28;20368;-68
2022/01/02 00:41:26;;;;;;;15.88;10.68;;;;;;;;;;5123063;28;20203;-68
2022/01/02 00:43:55;;;;;;;14.45;11.13;;;;;;;;;;5123344;28;20203;-68
2022/01/02 00:46:23;;;;;;;16.50;11.07;;;;;;;;;;5122650;28;20211;-68
2022/01/02 00:48:57;;;;;;;15.32;11.43;;;;;;;;;;5123314;28;20379;-68
2022/01/02 00:51:27;;;;;;;14.90;10.80;;;;;;;;;;5123580;28;20183;-68
2022/01/02 00:53:57;;;;;;;20.20;12.20;;;;;;;;;;5123140;28;20248;-68
2022/01/02 00:56:27;;;;;;;14.25;10.75;;;;;;;;;;5122875;28;20199;-68
2022/01/02 00:58:59;;;;;;;18.05;11.23;;;;;;;;;;5122955;28;20209;-68
2022/01/02 01:01:28;;;;;;;16.55;11.73;;;;;;;;;;5123160;28;20432;-68
2022/01/02 01:03:55;;;;;;;13.18;10.63;;;;;;;;;;5123105;28;20201;-68
2022/01/02 01:06:24;;;;;;;16.25;11.18;;;;;;;;;;5122463;28;20198;-68
2022/01/02 01:08:52;;;;;;;15.13;10.43;;;;;;;;;;5122663;28;20195;-68
2022/01/02 01:11:19;;;;;;;13.77;10.25;;;;;;;;;;5122868;28;20240;-68
2022/01/02 01:13:45;;;;;;;17.00;11.20;;;;;;;;;;5122716;28;20201;-68
2022/01/02 01:16:14;;;;;;;14.32;10.75;;;;;;;;;;5122653;28;20403;-68
2022/01/02 01:18:41;;;;;;;15.27;10.90;;;;;;;;;;5103948;28;20235;-68
2022/01/02 01:21:08;;;;;;;15.07;11.45;;;;;;;;;;5102466;28;20202;-68
2022/01/02 01:23:34;;;;;;;17.33;11.23;;;;;;;;;;5102472;28;20196;-68
2022/01/02 01:26:06;;;;;;;16.25;12.40;;;;;;;;;;5101981;28;20198;-68
2022/01/02 01:28:32;;;;;;;17.33;11.82;;;;;;;;;;5102296;28;20202;-68
2022/01/02 01:30:59;;;;;;;20.85;11.77;;;;;;;;;;5105153;28;20199;-68
2022/01/02 01:33:25;;;;;;;16.33;11.82;;;;;;;;;;5106202;28;20219;-68
2022/01/02 01:35:53;;;;;;;17.63;12.15;;;;;;;;;;5106210;28;20211;-68
2022/01/02 01:38:19;;;;;;;16.75;12.13;;;;;;;;;;5106065;28;20203;-68
2022/01/02 01:40:50;;;;;;;14.48;11.32;;;;;;;;;;5106172;28;20203;-68
2022/01/02 01:43:16;;;;;;;17.55;11.27;;;;;;;;;;5106083;28;20206;-68
2022/01/02 01:45:43;;;;;;;19.17;12.13;;;;;;;;;;5105919;28;20396;-69
2022/01/02 01:48:09;;;;;;;15.93;11.75;;;;;;;;;;5106170;28;20211;-68
2022/01/02 01:50:37;;;;;;;16.55;11.88;;;;;;;;;;5106189;28;20515;-68
2022/01/02 01:53:06;;;;;;;16.50;11.75;;;;;;;;;;5106089;28;20196;-68
2022/01/02 01:55:33;;;;;;;15.32;12.25;;;;;;;;;;5105573;28;20215;-68
2022/01/02 01:58:00;;;;;;;14.75;12.07;;;;;;;;;;5105656;28;20204;-68
2022/01/02 02:00:27;;;;;;;14.25;10.63;;;;;;;;;;5105912;28;20502;-68
2022/01/02 02:02:55;;;;;;;15.07;11.27;;;;;;;;;;5105949;28;20420;-68
2022/01/02 02:05:21;;;;;;;17.88;11.23;;;;;;;;;;5105410;28;20192;-68
2022/01/02 02:07:49;;;;;;;15.73;11.35;;;;;;;;;;5106033;28;20196;-68
2022/01/02 02:10:23;;;;;;;14.30;10.23;;;;;;;;;;5105863;28;20195;-68
2022/01/02 02:12:50;;;;;;;15.05;10.77;;;;;;;;;;5105713;28;20198;-68
2022/01/02 02:15:17;;;;;;;13.52;10.40;;;;;;;;;;5104448;28;20222;-68
2022/01/02 02:17:44;;;;;;;13.95;10.07;;;;;;;;;;5116187;28;20191;-68
2022/01/02 02:20:13;;;;;;;15.95;10.38;;;;;;;;;;5125705;28;20511;-68
2022/01/02 02:22:41;;;;;;;15.45;10.77;;;;;;;;;;5125863;27;20203;-68
2022/01/02 02:25:08;;;;;;;13.20;10.07;;;;;;;;;;5125178;28;20191;-68
2022/01/02 02:27:34;;;;;;;15.07;11.15;;;;;;;;;;5125872;28;20191;-68
2022/01/02 02:30:01;;;;;;;12.95;10.23;;;;;;;;;;5125937;27;20382;-68
2022/01/02 02:32:27;;;;;;;16.08;11.25;;;;;;;;;;5125553;27;20195;-68
2022/01/02 02:34:54;;;;;;;13.00;10.27;;;;;;;;;;5125113;28;20395;-68
2022/01/02 02:37:21;;;;;;;15.82;11.32;;;;;;;;;;5125740;28;20195;-68
2022/01/02 02:39:48;;;;;;;15.48;11.98;;;;;;;;;;5125609;28;20240;-68
2022/01/02 02:42:31;;;;;;;15.23;11.70;;;;;;;;;;5124779;28;20195;-68
2022/01/02 02:48:57;;;;;;;15.30;11.05;;;;;;;;;;5105263;28;20222;-68
2022/01/02 02:50:37;;;;;;;14.88;10.98;;;;;;;;;;5104628;28;20229;-68
2022/01/02 02:53:05;;;;;;;15.77;11.02;;;;;;;;;;5105232;28;20196;-68
2022/01/02 02:55:33;;;;;;;14.40;11.63;;;;;;;;;;5104452;28;20220;-68
2022/01/02 02:58:16;;;;;;;13.40;10.77;;;;;;;;;;5104532;28;20200;-68
2022/01/02 03:00:43;;;;;;;17.15;12.00;;;;;;;;;;5104646;28;20236;-68
2022/01/02 03:03:09;;;;;;;17.02;11.40;;;;;;;;;;5104899;28;20196;-68
2022/01/02 03:05:36;;;;;;;14.73;10.90;;;;;;;;;;5104336;28;20195;-68
2022/01/02 03:08:02;;;;;;;15.48;11.00;;;;;;;;;;5104407;28;20203;-68
2022/01/02 03:10:30;;;;;;;14.25;10.68;;;;;;;;;;5104418;28;20196;-68
2022/01/02 03:12:56;;;;;;;14.30;11.50;;;;;;;;;;5104311;28;20203;-68
2022/01/02 03:15:23;;;;;;;15.27;11.00;;;;;;;;;;5104317;28;20222;-68
2022/01/02 03:17:49;;;;;;;14.98;10.07;;;;;;;;;;5104430;28;20234;-68
2022/01/02 03:20:15;;;;;;;14.43;10.48;;;;;;;;;;5114029;28;20192;-68
2022/01/02 03:22:42;;;;;;;13.90;11.00;;;;;;;;;;5124534;28;20202;-68
2022/01/02 03:25:13;;;;;;;17.00;11.93;;;;;;;;;;5124650;28;20195;-69
2022/01/02 03:27:41;;;;;;;12.80;10.90;;;;;;;;;;5124776;28;20545;-69
2022/01/02 03:30:08;;;;;;;13.45;10.70;;;;;;;;;;5124669;28;20195;-69
2022/01/02 03:32:35;;;;;;;16.08;12.68;;;;;;;;;;5124418;28;20201;-69
2022/01/02 03:35:02;;;;;;;14.25;11.40;;;;;;;;;;5123348;28;20202;-68
2022/01/02 03:37:29;;;;;;;15.25;11.60;;;;;;;;;;5124463;28;20202;-69
2022/01/02 03:39:55;;;;;;;13.80;11.25;;;;;;;;;;5124539;28;20267;-69
2022/01/02 03:42:22;;;;;;;13.20;11.07;;;;;;;;;;5124163;28;20195;-69
2022/01/02 03:44:50;;;;;;;15.70;11.43;;;;;;;;;;5124534;28;20222;-69
2022/01/02 03:47:16;;;;;;;13.30;10.77;;;;;;;;;;5124129;28;20191;-69
2022/01/02 03:49:43;;;;;;;15.25;11.00;;;;;;;;;;5124476;28;20195;-69
2022/01/02 03:52:09;;;;;;;12.23;10.27;;;;;;;;;;5124289;28;20195;-69
2022/01/02 03:54:36;;;;;;;14.45;11.63;;;;;;;;;;5123085;28;20512;-69
2022/01/02 03:57:03;;;;;;;12.68;10.80;;;;;;;;;;5124032;28;20241;-69
2022/01/02 03:59:30;;;;;;;14.98;10.90;;;;;;;;;;5123846;28;20555;-70
2022/01/02 04:01:57;;;;;;;18.02;10.98;;;;;;;;;;5123668;28;20195;-70
2022/01/02 04:04:24;;;;;;;14.70;11.30;;;;;;;;;;5123598;28;20194;-70
2022/01/02 04:06:50;;;;;;;15.60;11.52;;;;;;;;;;5123581;28;20191;-70
2022/01/02 04:09:17;;;;;;;16.65;10.90;;;;;;;;;;5124049;28;20195;-68
2022/01/02 04:11:43;;;;;;;12.35;10.68;;;;;;;;;;5124030;28;20513;-68
2022/01/02 04:14:09;;;;;;;15.07;11.15;;;;;;;;;;5123578;28;20202;-68
2022/01/02 04:16:36;;;;;;;13.38;10.88;;;;;;;;;;5123505;28;20530;-68
2022/01/02 04:19:04;;;;;;;15.52;10.93;;;;;;;;;;5123414;28;20194;-68
2022/01/02 04:21:30;;;;;;;11.80;9.77;;;;;;;;;;5103435;28;20380;-68
2022/01/02 04:23:57;;;;;;;13.20;9.80;;;;;;;;;;5103095;28;20203;-68
2022/01/02 04:26:23;;;;;;;13.80;10.88;;;;;;;;;;5103119;28;20200;-68
2022/01/02 04:28:50;;;;;;;14.38;10.10;;;;;;;;;;5103004;28;20195;-68
2022/01/02 04:31:16;;;;;;;14.57;9.95;;;;;;;;;;5102976;28;20196;-69
2022/01/02 04:33:42;;;;;;;13.93;9.80;;;;;;;;;;5102709;28;20191;-68
2022/01/02 04:36:10;;;;;;;14.65;10.00;;;;;;;;;;5102698;28;20558;-68
2022/01/02 04:38:37;;;;;;;12.75;10.20;;;;;;;;;;5103251;28;20390;-68
2022/01/02 04:41:04;;;;;;;14.30;10.90;;;;;;;;;;5102787;28;20196;-68
2022/01/02 04:43:30;;;;;;;12.40;10.35;;;;;;;;;;5102771;28;20196;-68
2022/01/02 04:45:57;;;;;;;15.93;9.95;;;;;;;;;;5102518;28;20251;-68
2022/01/02 04:48:23;;;;;;;14.05;9.98;;;;;;;;;;5102690;28;20334;-68
2022/01/02 04:50:50;;;;;;;16.67;11.02;;;;;;;;;;5102710;28;20207;-68
2022/01/02 04:53:19;;;;;;;14.98;10.77;;;;;;;;;;5102667;28;20203;-68
2022/01/02 04:55:46;;;;;;;13.65;10.43;;;;;;;;;;5102332;28;20230;-68
2022/01/02 04:58:12;;;;;;;14.05;10.68;;;;;;;;;;5102674;28;20226;-68
2022/01/02 05:00:39;;;;;;;14.60;10.80;;;;;;;;;;5102544;28;20195;-68
2022/01/02 05:03:05;;;;;;;13.63;10.48;;;;;;;;;;5102719;28;20202;-68
2022/01/02 05:05:32;;;;;;;14.82;11.45;;;;;;;;;;5102234;28;20383;-68
2022/01/02 05:07:58;;;;;;;15.35;11.85;;;;;;;;;;5102590;28;20208;-68
2022/01/02 05:10:26;;;;;;;14.93;10.93;;;;;;;;;;5102769;28;20495;-69
2022/01/02 05:12:52;;;;;;;15.77;10.75;;;;;;;;;;5102423;28;20202;-68
2022/01/02 05:15:19;;;;;;;14.00;10.95;;;;;;;;;;5101998;28;20196;-69
2022/01/02 05:17:45;;;;;;;13.30;11.52;;;;;;;;;;5102780;28;20227;-69
2022/01/02 05:20:12;;;;;;;14.35;11.65;;;;;;;;;;5111501;28;20195;-69
2022/01/02 05:22:38;;;;;;;17.80;11.82;;;;;;;;;;5122997;28;20195;-69
2022/01/02 05:25:05;;;;;;;16.08;12.05;;;;;;;;;;5122370;28;20217;-69
2022/01/02 05:27:33;;;;;;;14.75;11.85;;;;;;;;;;5122584;28;20195;-69
2022/01/02 05:30:00;;;;;;;14.23;11.00;;;;;;;;;;5122614;28;20232;-68
2022/01/02 05:32:26;;;;;;;12.95;10.40;;;;;;;;;;5122786;28;20194;-68
2022/01/02 05:34:52;;;;;;;12.57;10.25;;;;;;;;;;5122540;28;20518;-68
2022/01/02 05:37:19;;;;;;;15.77;10.88;;;;;;;;;;5122584;28;20218;-69
2022/01/02 05:39:45;;;;;;;14.57;10.45;;;;;;;;;;5122642;28;20203;-68
2022/01/02 05:42:12;;;;;;;13.02;9.65;;;;;;;;;;5122434;28;20202;-68
2022/01/02 05:44:39;;;;;;;11.00;9.65;;;;;;;;;;5122422;28;20222;-69
2022/01/02 05:47:06;;;;;;;11.45;9.15;;;;;;;;;;5122612;28;20190;-68
2022/01/02 05:49:32;;;;;;;14.60;10.23;;;;;;;;;;5122356;28;20215;-68
2022/01/02 05:51:59;;;;;;;13.10;10.05;;;;;;;;;;5123074;28;20194;-68
2022/01/02 05:54:25;;;;;;;11.05;9.23;;;;;;;;;;5122649;28;20203;-68
2022/01/02 05:56:52;;;;;;;11.07;9.02;;;;;;;;;;5122194;28;20211;-68
2022/01/02 05:59:18;;;;;;;11.23;8.40;;;;;;;;;;5122123;28;20249;-69
2022/01/02 06:01:46;;;;;;;11.43;9.00;;;;;;;;;;5122583;28;20195;-68
2022/01/02 06:04:12;;;;;;;10.80;9.00;;;;;;;;;;5122413;28;20391;-68
2022/01/02 06:06:39;;;;;;;11.25;8.90;;;;;;;;;;5122058;28;20191;-68
2022/01/02 06:09:05;;;;;;;9.85;8.73;;;;;;;;;;5122263;28;20209;-68
2022/01/02 06:11:32;;;;;;;11.35;8.95;;;;;;;;;;5122572;28;20382;-69
2022/01/02 06:13:58;;;;;;;11.57;8.75;;;;;;;;;;5122460;28;20203;-68
2022/01/02 06:16:24;;;;;;;16.83;12.60;;;;;;;;;;5122044;28;20412;-68
2022/01/02 06:18:53;;;;;;;11.95;9.57;;;;;;;;;;5125662;28;20209;-68
2022/01/02 06:21:20;;;;;;;17.00;9.38;;;;;;;;;;5106794;28;20202;-68
2022/01/02 06:23:46;;;;;;;10.90;9.55;;;;;;;;;;5105438;28;20390;-68
2022/01/02 06:26:12;;;;;;;10.98;9.45;;;;;;;;;;5105058;28;20192;-68
2022/01/02 06:28:39;;;;;;;12.80;9.15;;;;;;;;;;5105549;28;20196;-68
2022/01/02 06:31:05;;;;;;;10.65;8.70;;;;;;;;;;5105477;28;20535;-68
2022/01/02 06:33:32;;;;;;;9.88;8.55;;;;;;;;;;5105440;28;20196;-67
2022/01/02 06:35:59;;;;;;;11.90;8.75;;;;;;;;;;5104980;28;20387;-67
2022/01/02 06:38:26;;;;;;;10.07;9.07;;;;;;;;;;5105146;28;20196;-67
2022/01/02 06:40:52;;;;;;;12.23;9.45;;;;;;;;;;5105030;28;20273;-69
2022/01/02 06:43:19;;;;;;;13.25;10.07;;;;;;;;;;5104997;28;20195;-69
2022/01/02 06:45:46;;;;;;;11.95;9.52;;;;;;;;;;5104821;28;20215;-69
2022/01/02 06:48:13;;;;;;;13.27;10.85;;;;;;;;;;5105058;28;20199;-69
2022/01/02 06:50:40;;;;;;;11.13;9.77;;;;;;;;;;5105191;28;20207;-69
2022/01/02 06:53:08;;;;;;;10.27;8.65;;;;;;;;;;5104777;28;20270;-66
2022/01/02 06:55:34;;;;;;;11.63;10.40;;;;;;;;;;5103638;28;20444;-67
2022/01/02 06:58:01;;;;;;;11.85;9.55;;;;;;;;;;5104694;28;20227;-67
2022/01/02 07:00:27;;;;;;;11.07;9.25;;;;;;;;;;5104655;28;20191;-67
2022/01/02 07:02:54;;;;;;;10.95;9.32;;;;;;;;;;5104818;28;20203;-67
2022/01/02 07:05:20;;;;;;;11.07;9.60;;;;;;;;;;5104754;28;20369;-67
2022/01/02 07:07:47;;;;;;;12.88;9.18;;;;;;;;;;5104495;28;20199;-67
2022/01/02 07:10:15;;;;;;;10.60;9.55;;;;;;;;;;5104789;28;20202;-67
2022/01/02 07:12:42;;;;;;;11.43;9.25;;;;;;;;;;5104900;28;20278;-67
2022/01/02 07:15:09;;;;;;;10.68;9.52;;;;;;;;;;5104075;28;20195;-67
2022/01/02 07:17:36;;;;;;;13.38;9.88;;;;;;;;;;5104196;28;20230;-67
2022/01/02 07:20:04;;;;;;;11.60;9.65;;;;;;;;;;5112308;28;20194;-67
2022/01/02 07:22:30;;;;;;;11.77;9.43;;;;;;;;;;5124528;28;20202;-67
2022/01/02 07:24:57;;;;;;;13.07;10.25;;;;;;;;;;5124619;28;20386;-67
2022/01/02 07:27:25;;;;;;;10.07;8.95;;;;;;;;;;5124479;28;20198;-67
2022/01/02 07:29:51;;;;;;;9.65;8.65;;;;;;;;;;5124577;28;20195;-67
2022/01/02 07:32:18;;;;;;;10.60;8.63;;;;;;;;;;5124778;28;20229;-67
2022/01/02 07:34:45;;;;;;;9.55;8.57;;;;;;;;;;5124508;28;20549;-67
2022/01/02 07:37:11;;;;;;;12.18;9.02;;;;;;;;;;5124158;28;20230;-67
2022/01/02 07:39:38;;;;;;;12.55;9.10;;;;;;;;;;5124651;28;20202;-67
2022/01/02 07:42:04;;;;;;;14.43;9.07;;;;;;;;;;5124376;28;20387;-66
2022/01/02 07:44:32;;;;;;;11.48;8.32;;;;;;;;;;5123946;28;20203;-57
2022/01/02 07:46:59;;;;;;;12.27;8.65;;;;;;;;;;5124142;28;20519;-55
2022/01/02 07:49:26;;;;;;;13.98;10.07;;;;;;;;;;5123580;28;20188;-58
2022/01/02 07:51:52;;;;;;;11.68;8.88;;;;;;;;;;5123621;28;20195;-58
2022/01/02 07:54:18;;;;;;;11.98;8.40;;;;;;;;;;5117788;28;20199;-57
2022/01/02 07:56:45;;;;;;;9.70;8.23;;;;;;;;;;5120463;28;20226;-55
2022/01/02 07:59:12;;;;;;;10.48;8.48;;;;;;;;;;5123862;28;20210;-55
2022/01/02 08:01:40;;;;;;;9.20;8.02;;;;;;;;;;5124035;28;20195;-54
2022/01/02 08:04:06;;;;;;;9.90;8.27;;;;;;;;;;5123383;28;20211;-55
2022/01/02 08:06:32;;;;;;;18.00;12.18;;;;;;;;;;5124015;28;20195;-56
2022/01/02 08:08:59;;;;;;;12.45;8.50;;;;;;;;;;5124012;28;20500;-56
2022/01/02 08:11:25;;;;;;;10.13;8.68;;;;;;;;;;5124121;28;20183;-55
2022/01/02 08:13:53;;;;;;;10.60;9.38;;;;;;;;;;5123577;28;20215;-57
2022/01/02 08:16:19;;;;;;;12.05;8.02;;;;;;;;;;5123385;28;20204;-57
2022/01/02 08:18:47;;;;;;;10.77;8.68;;;;;;;;;;5123340;28;20187;-58
2022/01/02 08:21:13;;;;;;;14.13;10.43;;;;;;;;;;5123470;28;20194;-58
2022/01/02 08:23:40;;;;;;;12.60;9.75;;;;;;;;;;5123866;28;20499;-56
2022/01/02 08:26:06;;;;;;;13.02;8.98;;;;;;;;;;5123523;28;20202;-56
2022/01/02 08:28:33;;;;;;;12.80;10.18;;;;;;;;;;5123427;28;20191;-56
2022/01/02 08:30:59;;;;;;;13.07;9.35;;;;;;;;;;5123078;28;20244;-57
2022/01/02 08:33:26;;;;;;;12.02;9.25;;;;;;;;;;5123218;28;20202;-56
2022/01/02 08:35:53;;;;;;;14.07;9.57;;;;;;;;;;5122910;28;20195;-55
2022/01/02 08:38:20;;;;;;;12.65;9.77;;;;;;;;;;5123006;28;20218;-56
2022/01/02 08:40:46;;;;;;;9.80;8.40;;;;;;;;;;5121952;28;20202;-57
2022/01/02 08:43:12;;;;;;;11.63;9.05;;;;;;;;;;5122192;28;20195;-56
2022/01/02 08:45:39;;;;;;;12.38;9.32;;;;;;;;;;5121867;28;20215;-57
2022/01/02 08:48:06;;;;;;;12.80;9.95;;;;;;;;;;5122362;28;20202;-57
2022/01/02 08:50:33;;;;;;;14.55;9.85;;;;;;;;;;5122414;28;20198;-57
2022/01/02 08:53:01;;;;;;;12.40;9.80;;;;;;;;;;5122359;28;20203;-57
2022/01/02 08:55:27;;;;;;;11.10;10.00;;;;;;;;;;5122125;28;20195;-55
2022/01/02 08:57:54;;;;;;;13.80;10.52;;;;;;;;;;5122162;28;20218;-57
2022/01/02 09:00:20;;;;;;;11.23;10.02;;;;;;;;;;5122111;28;20202;-57
2022/01/02 09:02:46;;;;;;;13.60;10.40;;;;;;;;;;5122470;28;20383;-56
2022/01/02 09:05:13;;;;;;;13.52;10.75;;;;;;;;;;5122017;28;20195;-56
2022/01/02 09:07:39;;;;;;;15.40;10.48;;;;;;;;;;5122072;28;20365;-56
2022/01/02 09:10:07;;;;;;;12.68;10.18;;;;;;;;;;5122161;28;20195;-56
2022/01/02 09:12:34;;;;;;;11.63;9.60;;;;;;;;;;5122076;28;20195;-56
2022/01/02 09:15:00;;;;;;;13.15;9.80;;;;;;;;;;5121832;28;20501;-54
2022/01/02 09:17:27;;;;;;;11.30;9.93;;;;;;;;;;5122374;28;20211;-56
2022/01/02 09:19:53;;;;;;;10.43;9.32;;;;;;;;;;5122022;28;20203;-57
2022/01/02 09:22:20;;;;;;;11.05;8.80;;;;;;;;;;5122482;28;20194;-57
2022/01/02 09:24:46;;;;;;;10.60;8.40;;;;;;;;;;5122055;28;20210;-55
2022/01/02 09:27:14;;;;;;;11.57;8.82;;;;;;;;;;5122097;28;20187;-56
2022/01/02 09:29:40;;;;;;;8.82;7.93;;;;;;;;;;5121968;28;20386;-56
2022/01/02 09:32:07;;;;;;;8.73;7.82;;;;;;;;;;5122107;28;20187;-56
2022/01/02 09:34:33;;;;;;;9.95;8.60;;;;;;;;;;5121910;28;20190;-57
2022/01/02 09:36:59;;;;;;;9.10;7.97;;;;;;;;;;5121715;28;20195;-55
2022/01/02 09:39:26;;;;;;;9.95;8.13;;;;;;;;;;5122031;28;20202;-55
2022/01/02 09:41:53;;;;;;;11.40;8.43;;;;;;;;;;5121937;28;20201;-57
2022/01/02 09:44:21;;;;;;;8.85;8.05;;;;;;;;;;5121967;28;20556;-57
2022/01/02 09:46:51;;;;;;;9.05;8.15;;;;;;;;;;5121863;28;20274;-57
2022/01/02 09:49:18;;;;;;;9.45;8.02;;;;;;;;;;5121911;28;20201;-56
2022/01/02 09:51:44;;;;;;;8.35;7.53;;;;;;;;;;5123629;28;20353;-56
2022/01/02 09:54:10;;;;;;;9.63;7.38;;;;;;;;;;5125971;27;20195;-56
2022/01/02 09:56:37;;;;;;;8.43;6.68;;;;;;;;;;5125063;28;20195;-57
2022/01/02 09:59:04;;;;;;;6.82;6.22;;;;;;;;;;5125622;28;20219;-56
2022/01/02 10:01:32;;;;;;;7.82;7.05;;;;;;;;;;5125643;28;20195;-56
2022/01/02 10:04:00;;;;;;;7.90;7.10;;;;;;;;;;5125525;28;20226;-56
2022/01/02 10:06:38;;;;;;;7.93;7.05;;;;;;;;;;5125345;28;20195;-56
2022/01/02 10:09:04;;;;;;;9.32;7.45;;;;;;;;;;5125902;28;20360;-57
2022/01/02 10:11:32;;;;;;;9.93;7.47;;;;;;;;;;5126030;28;20203;-57
2022/01/02 10:14:01;;;;;;;12.27;8.18;;;;;;;;;;5126131;28;20218;-56
2022/01/02 10:16:33;;;;;;;11.55;8.07;;;;;;;;;;5125853;28;20202;-55
2022/01/02 10:19:00;;;;;;;10.20;7.97;;;;;;;;;;5125755;27;20234;-56
2022/01/02 10:21:33;;;;;;;8.77;7.40;;;;;;;;;;5126169;28;20195;-57
2022/01/02 10:24:13;;;;;;;9.88;7.53;;;;;;;;;;5125689;28;20195;-56
2022/01/02 10:26:40;;;;;;;10.35;8.20;;;;;;;;;;5125729;28;20225;-58
2022/01/02 10:29:10;;;;;;;10.57;8.10;;;;;;;;;;5125917;28;20197;-56
2022/01/02 10:31:38;;;;;;;9.63;7.82;;;;;;;;;;5125827;28;20183;-57
2022/01/02 10:34:05;;;;;;;7.72;6.90;;;;;;;;;;5125748;28;20198;-57
2022/01/02 10:36:32;;;;;;;9.07;6.80;;;;;;;;;;5125871;28;20483;-56
2022/01/02 10:38:59;;;;;;;10.85;6.80;;;;;;;;;;5125355;28;20317;-57
2022/01/02 10:41:28;;;;;;;8.05;7.20;;;;;;;;;;5125640;28;20382;-57
2022/01/02 10:43:55;;;;;;;8.18;7.38;;;;;;;;;;5125381;28;20203;-55
2022/01/02 10:46:21;;;;;;;8.43;7.10;;;;;;;;;;5124242;28;20214;-57
2022/01/02 10:48:49;;;;;;;7.78;6.72;;;;;;;;;;5124981;28;20198;-56
2022/01/02 10:51:17;;;;;;;7.10;6.40;;;;;;;;;;5125185;28;20319;-57
2022/01/02 10:53:51;;;;;;;7.47;6.70;;;;;;;;;;5125186;28;20421;-56
2022/01/02 10:56:18;;;;;;;6.28;5.68;;;;;;;;;;5125039;28;20201;-56
2022/01/02 10:58:46;;;;;;;6.63;5.93;;;;;;;;;;5125114;28;20222;-58
2022/01/02 11:01:13;;;;;;;6.75;6.07;;;;;;;;;;5125003;28;20195;-56
2022/01/02 11:03:39;;;;;;;7.25;6.45;;;;;;;;;;5124544;28;20195;-55
2022/01/02 11:06:08;;;;;;;7.45;6.75;;;;;;;;;;5121165;28;20521;-55
2022/01/02 11:08:35;;;;;;;9.30;7.13;;;;;;;;;;5125294;28;20258;-56
2022/01/02 11:11:02;;;;;;;6.93;6.22;;;;;;;;;;5125147;28;20194;-56
2022/01/02 11:13:28;;;;;;;7.43;6.47;;;;;;;;;;5124818;28;20262;-56
2022/01/02 11:15:55;;;;;;;8.77;6.85;;;;;;;;;;5124367;28;20210;-55
2022/01/02 11:18:22;;;;;;;7.20;6.50;;;;;;;;;;5124712;28;20222;-54
2022/01/02 11:20:48;;;;;;;7.93;7.13;;;;;;;;;;5124632;28;20203;-54
2022/01/02 11:23:20;;;;;;;13.48;9.48;;;;;;;;;;5124901;28;20382;-56
2022/01/02 11:25:50;;;;;;;15.85;11.75;;;;;;;;;;5124517;28;20214;-56
2022/01/02 11:28:23;;;;;;;10.57;7.05;;;;;;;;;;5123800;28;20187;-54
2022/01/02 11:30:50;;;;;;;7.47;6.68;;;;;;;;;;5112869;27;20207;-55
2022/01/02 11:33:19;;;;;;;7.88;7.07;;;;;;;;;;5111939;28;20510;-54
2022/01/02 11:35:47;;;;;;;8.20;7.30;;;;;;;;;;5117612;27;20417;-55
2022/01/02 11:38:16;;;;;;;7.55;6.43;;;;;;;;;;5121456;28;20581;-54
2022/01/02 11:40:45;;;;;;;7.90;7.20;;;;;;;;;;5108771;28;20400;-56
2022/01/02 11:43:46;;;;;;;11.02;7.07;;;;;;;;;;5119816;28;20524;-56
2022/01/02 11:46:14;;;;;;;7.55;6.55;;;;;;;;;;5121005;28;20256;-56
2022/01/02 11:48:41;;;;;;;6.78;6.15;;;;;;;;;;5122795;28;20191;-57
2022/01/02 11:51:07;;;;;;;7.90;6.80;;;;;;;;;;5123137;28;20467;-55
2022/01/02 11:53:35;;;;;;;8.20;6.70;;;;;;;;;;5123937;28;20195;-55
2022/01/02 11:56:03;;;;;;;9.38;7.22;;;;;;;;;;5123690;28;20507;-55
2022/01/02 11:58:46;;;;;;;7.40;6.47;;;;;;;;;;5123674;28;20226;-56
2022/01/02 12:01:32;;;;;;;7.75;6.78;;;;;;;;;;5121919;28;20387;-56
2022/01/02 12:03:59;;;;;;;6.80;6.18;;;;;;;;;;5123498;28;20377;-57
2022/01/02 12:06:33;;;;;;;8.07;7.25;;;;;;;;;;5123291;28;20199;-55
2022/01/02 12:08:59;;;;;;;8.80;7.35;;;;;;;;;;5123560;28;20214;-56
2022/01/02 12:11:40;;;;;;;7.53;6.80;;;;;;;;;;5123592;28;20196;-56
2022/01/02 12:14:08;;;;;;;6.88;6.20;;;;;;;;;;5122821;28;20195;-56
2022/01/02 12:16:35;;;;;;;7.32;6.70;;;;;;;;;;5122902;28;20202;-57
2022/01/02 12:19:03;;;;;;;8.23;6.80;;;;;;;;;;5123425;28;20250;-55
2022/01/02 12:21:31;;;;;;;7.97;6.90;;;;;;;;;;5123537;28;20194;-56
2022/01/02 12:23:57;;;;;;;7.13;6.35;;;;;;;;;;5123419;27;20415;-55
2022/01/02 12:26:28;;;;;;;8.18;6.82;;;;;;;;;;5123212;28;20195;-55
2022/01/02 12:29:01;;;;;;;9.32;7.15;;;;;;;;;;5123283;28;20199;-55
2022/01/02 12:31:29;;;;;;;9.15;7.70;;;;;;;;;;5123633;28;20190;-56
2022/01/02 12:34:02;;;;;;;8.25;6.85;;;;;;;;;;5123334;28;20195;-56
2022/01/02 12:36:29;;;;;;;11.93;7.30;;;;;;;;;;5122935;28;20190;-56
2022/01/02 12:38:56;;;;;;;8.80;6.32;;;;;;;;;;5122962;28;20218;-57
2022/01/02 12:41:23;;;;;;;9.27;6.53;;;;;;;;;;5123136;28;20203;-56
2022/01/02 12:43:53;;;;;;;6.63;5.95;;;;;;;;;;5123050;28;20195;-55
2022/01/02 12:46:38;;;;;;;7.50;6.78;;;;;;;;;;5122544;28;20215;-56
2022/01/02 12:49:05;;;;;;;8.23;7.07;;;;;;;;;;5123001;28;20191;-55
2022/01/02 12:51:32;;;;;;;7.18;6.53;;;;;;;;;;5122798;28;20195;-55
2022/01/02 12:53:59;;;;;;;6.90;6.20;;;;;;;;;;5123480;28;20210;-55
2022/01/02 12:56:31;;;;;;;7.18;6.47;;;;;;;;;;5122807;28;20387;-57
2022/01/02 12:59:12;;;;;;;7.13;5.50;;;;;;;;;;5122657;28;20218;-57
2022/01/02 13:01:48;;;;;;;5.35;4.88;;;;;;;;;;5123078;28;20172;-57
2022/01/02 13:04:17;;;;;;;8.63;5.07;;;;;;;;;;5122823;28;20612;-57
2022/01/02 13:06:44;;;;;;;4.47;4.18;;;;;;;;;;5122181;28;20364;-57
2022/01/02 13:09:10;;;;;;;4.45;4.15;;;;;;;;;;5123016;28;20508;-55
2022/01/02 13:11:37;;;;;;;5.03;4.15;;;;;;;;;;5122830;28;20350;-57
2022/01/02 13:14:03;;;;;;;4.40;4.03;;;;;;;;;;5122854;28;20514;-55
2022/01/02 13:16:30;;;;;;;6.22;3.78;;;;;;;;;;5122734;28;20499;-55
2022/01/02 13:18:58;;;;;;;4.10;3.85;;;;;;;;;;5122863;28;20230;-57
2022/01/02 13:21:25;;;;;;;6.22;4.72;;;;;;;;;;5122582;28;20597;-55
2022/01/02 13:23:51;;;;;;;4.78;4.15;;;;;;;;;;5122828;28;20195;-55
2022/01/02 13:26:18;;;;;;;4.28;3.92;;;;;;;;;;5123707;28;20262;-56
2022/01/02 13:28:45;;;;;;;4.72;3.63;;;;;;;;;;5126584;28;20244;-57
2022/01/02 13:31:11;;;;;;;3.50;3.13;;;;;;;;;;5126586;28;20217;-55
2022/01/02 13:33:43;;;;;;;4.10;3.80;;;;;;;;;;5126677;28;20195;-57
2022/01/02 13:36:12;;;;;;;4.13;3.15;;;;;;;;;;5126304;28;20236;-56
2022/01/02 13:38:48;;;;;;;3.60;3.35;;;;;;;;;;5126655;28;20222;-57
2022/01/02 13:41:15;;;;;;;5.57;3.28;;;;;;;;;;5126750;28;20495;-56
2022/01/02 13:43:41;;;;;;;3.58;3.38;;;;;;;;;;5126516;28;20202;-57
2022/01/02 13:46:07;;;;;;;2.95;2.85;;;;;;;;;;5126434;28;20410;-57
2022/01/02 13:48:35;;;;;;;3.17;2.97;;;;;;;;;;5126686;28;20198;-55
2022/01/02 13:51:02;;;;;;;3.30;3.00;;;;;;;;;;5126446;28;20198;-55
2022/01/02 13:53:30;;;;;;;2.50;2.30;;;;;;;;;;5126268;28;20195;-57
2022/01/02 13:56:07;;;;;;;2.90;2.80;;;;;;;;;;5126093;27;20195;-56
2022/01/02 13:58:34;;;;;;;5.82;3.40;;;;;;;;;;5126338;28;20218;-57
2022/01/02 14:01:01;;;;;;;3.17;2.83;;;;;;;;;;5126302;28;20335;-57
2022/01/02 14:03:29;;;;;;;2.63;2.53;;;;;;;;;;5126364;28;20195;-54
2022/01/02 14:05:56;;;;;;;2.30;2.20;;;;;;;;;;5125752;28;20210;-54
2022/01/02 14:08:22;;;;;;;3.40;2.40;;;;;;;;;;5126336;28;20218;-56
2022/01/02 14:11:03;;;;;;;2.38;2.28;;;;;;;;;;5126255;28;20201;-57
2022/01/02 14:13:30;;;;;;;2.63;2.42;;;;;;;;;;5126053;28;20518;-55
2022/01/02 14:15:59;;;;;;;2.58;2.35;;;;;;;;;;5125963;28;20241;-56
2022/01/02 14:18:27;;;;;;;2.80;2.60;;;;;;;;;;5125942;28;20226;-56
2022/01/02 14:21:00;;;;;;;3.10;2.60;;;;;;;;;;5125752;28;20191;-55
2022/01/02 14:23:26;;;;;;;2.72;2.47;;;;;;;;;;5125749;28;20195;-56
2022/01/02 14:25:53;;;;;;;2.40;2.30;;;;;;;;;;5125591;28;20210;-56
2022/01/02 14:28:21;;;;;;;2.83;2.60;;;;;;;;;;5125285;28;20195;-57
2022/01/02 14:30:49;;;;;;;2.90;2.70;;;;;;;;;;5125705;28;20202;-57
2022/01/02 14:33:15;;;;;;;2.97;2.38;;;;;;;;;;5125638;28;20478;-57
2022/01/02 14:35:42;;;;;;;2.58;2.38;;;;;;;;;;5125389;28;20195;-57